Time;durP1;ratioP1;P1;durP2;ratioP2;P2;SDS_P1;SDS_P2;PMS_P1;PMS_P2;Temp;Humidity;BMP_temperature;BMP_pressure;BME280_temperature;BME280_humidity;BME280_pressure;Samples;Min_cycle;Max_cycle;Signal;HPM_P1;HPM_P2
2021/12/26 00:00:15;;;;;;;8.50;3.85;;;;;;;-2.29;82.28;100568.53;5033601;28;20033;-76
2021/12/26 00:02:42;;;;;;;9.15;4.53;;;;;;;-2.30;82.22;100570.25;5029801;28;20068;-75
2021/12/26 00:05:08;;;;;;;7.90;4.07;;;;;;;-2.29;82.45;100573.63;5024754;28;20221;-76
2021/12/26 00:07:34;;;;;;;7.88;4.10;;;;;;;-2.30;82.68;100570.25;5022487;28;20041;-76
2021/12/26 00:10:00;;;;;;;11.10;5.30;;;;;;;-2.32;83.08;100574.59;5028893;28;20369;-76
2021/12/26 00:12:26;;;;;;;9.27;4.32;;;;;;;-2.29;83.47;100566.00;5027400;28;20037;-76
2021/12/26 00:14:51;;;;;;;9.27;4.90;;;;;;;-2.25;83.30;100567.47;5027780;28;20037;-76
2021/12/26 00:17:17;;;;;;;9.30;4.60;;;;;;;-2.30;84.15;100565.16;5027942;28;20037;-76
2021/12/26 00:19:42;;;;;;;12.23;4.50;;;;;;;-2.29;84.39;100566.81;5015063;28;20041;-76
2021/12/26 00:22:08;;;;;;;12.55;4.25;;;;;;;-2.31;84.43;100562.72;5031189;28;20045;-75
2021/12/26 00:24:34;;;;;;;8.95;4.70;;;;;;;-2.27;84.23;100554.03;5027231;28;20033;-76
2021/12/26 00:27:00;;;;;;;9.65;4.28;;;;;;;-2.24;84.22;100557.25;5027482;28;20041;-76
2021/12/26 00:29:26;;;;;;;8.75;4.40;;;;;;;-2.30;84.83;100551.66;5026651;28;20566;-75
2021/12/26 00:31:51;;;;;;;10.30;4.70;;;;;;;-2.30;84.96;100555.00;5024990;28;20426;-76
2021/12/26 00:34:17;;;;;;;11.88;5.07;;;;;;;-2.28;84.88;100549.84;5025647;28;20030;-76
2021/12/26 00:36:42;;;;;;;11.80;4.80;;;;;;;-2.20;84.55;100540.13;5041947;28;20505;-75
2021/12/26 00:39:09;;;;;;;10.07;5.20;;;;;;;-2.25;84.95;100534.47;5025715;28;20044;-75
2021/12/26 00:41:39;;;;;;;10.75;4.97;;;;;;;-2.29;85.38;100541.41;5009760;28;20064;-75
2021/12/26 00:44:07;;;;;;;9.18;4.90;;;;;;;-2.29;85.55;100536.34;5010198;28;20029;-76
2021/12/26 00:46:33;;;;;;;11.10;5.20;;;;;;;-2.27;85.15;100529.44;5014026;28;20029;-75
2021/12/26 00:48:58;;;;;;;9.90;4.50;;;;;;;-2.29;85.51;100531.25;5026681;28;20508;-76
2021/12/26 00:51:24;;;;;;;9.18;4.95;;;;;;;-2.30;85.80;100527.06;5009487;28;20034;-75
2021/12/26 00:53:49;;;;;;;11.15;5.40;;;;;;;-2.30;85.54;100521.97;5040768;28;20039;-75
2021/12/26 00:56:15;;;;;;;8.30;4.35;;;;;;;-2.29;85.69;100530.44;5021168;28;20518;-75
2021/12/26 00:58:41;;;;;;;7.65;4.25;;;;;;;-2.31;85.55;100527.97;5023121;28;20173;-76
2021/12/26 01:01:07;;;;;;;11.02;4.50;;;;;;;-2.31;85.72;100520.34;5007301;28;20636;-75
2021/12/26 01:03:35;;;;;;;7.32;4.35;;;;;;;-2.35;86.22;100518.88;5016180;28;20261;-76
2021/12/26 01:06:01;;;;;;;10.02;4.55;;;;;;;-2.35;86.41;100529.84;5032844;28;20120;-75
2021/12/26 01:08:31;;;;;;;10.77;4.85;;;;;;;-2.37;86.05;100529.13;5021394;28;20083;-75
2021/12/26 01:11:07;;;;;;;10.23;4.60;;;;;;;-2.33;86.13;100532.31;5025849;28;20067;-76
2021/12/26 01:13:38;;;;;;;8.85;4.65;;;;;;;-2.37;85.91;100531.66;5025529;28;20037;-76
2021/12/26 01:16:19;;;;;;;13.30;5.20;;;;;;;-2.43;86.58;100534.53;5015669;28;20128;-75
2021/12/26 01:18:51;;;;;;;9.38;4.88;;;;;;;-2.44;86.86;100530.31;5025630;28;20047;-75
2021/12/26 01:21:21;;;;;;;12.00;5.13;;;;;;;-2.45;87.33;100538.00;5050557;28;20033;-74
2021/12/26 01:23:57;;;;;;;9.50;4.80;;;;;;;-2.45;87.37;100533.78;5037653;28;20072;-75
2021/12/26 01:26:23;;;;;;;9.65;4.95;;;;;;;-2.46;87.67;100528.78;5029292;28;20120;-75
2021/12/26 01:28:49;;;;;;;9.30;5.00;;;;;;;-2.44;87.90;100529.50;5021006;28;20033;-76
2021/12/26 01:31:19;;;;;;;10.10;4.32;;;;;;;-2.44;88.10;100534.59;5023042;28;20029;-75
2021/12/26 01:33:54;;;;;;;9.10;4.53;;;;;;;-2.41;88.75;100539.50;5007194;28;20112;-76
2021/12/26 01:36:49;;;;;;;11.30;5.20;;;;;;;-2.33;88.80;100536.59;5008831;28;20499;-75
2021/12/26 01:39:33;;;;;;;10.13;5.18;;;;;;;-2.31;89.00;100533.06;5018461;28;20195;-75
2021/12/26 01:42:10;;;;;;;9.43;5.00;;;;;;;-2.23;89.34;100541.09;5030261;28;20040;-75
2021/12/26 01:44:55;;;;;;;9.27;5.07;;;;;;;-2.14;89.84;100532.19;5022626;28;20038;-75
2021/12/26 01:47:22;;;;;;;11.50;6.05;;;;;;;-1.94;90.14;100532.81;5038037;28;20033;-76
2021/12/26 01:49:47;;;;;;;11.90;6.38;;;;;;;-1.79;90.08;100527.75;5021876;28;20222;-76
2021/12/26 01:52:13;;;;;;;10.63;6.25;;;;;;;-1.68;89.86;100531.41;5034684;28;20037;-76
2021/12/26 01:54:45;;;;;;;8.80;5.55;;;;;;;-1.52;89.05;100534.78;5027152;28;20033;-76
2021/12/26 01:57:12;;;;;;;10.90;5.88;;;;;;;-1.46;88.85;100536.97;5020561;28;20561;-76
2021/12/26 01:59:40;;;;;;;11.23;5.60;;;;;;;-1.39;88.48;100527.28;5023700;28;20403;-76
2021/12/26 02:02:15;;;;;;;9.57;5.93;;;;;;;-1.31;88.45;100522.56;5024569;28;20346;-76
2021/12/26 02:04:41;;;;;;;11.43;5.78;;;;;;;-1.22;88.35;100518.72;5026708;28;20395;-77
2021/12/26 02:07:08;;;;;;;13.38;5.95;;;;;;;-1.18;88.14;100520.97;5008554;28;20037;-76
2021/12/26 02:09:35;;;;;;;11.40;5.55;;;;;;;-1.24;88.13;100515.44;5022443;28;20052;-76
2021/12/26 02:12:03;;;;;;;9.98;5.57;;;;;;;-1.18;87.62;100507.44;5020708;28;20091;-76
2021/12/26 02:14:30;;;;;;;9.63;5.63;;;;;;;-1.12;87.96;100509.63;5024595;28;20029;-76
2021/12/26 02:17:16;;;;;;;10.50;5.47;;;;;;;-1.21;88.18;100508.41;5024960;28;20108;-77
2021/12/26 02:19:42;;;;;;;12.55;6.25;;;;;;;-1.11;88.08;100508.72;5010088;28;20037;-76
2021/12/26 02:22:24;;;;;;;8.90;5.43;;;;;;;-1.10;88.17;100507.81;5023411;28;20029;-77
2021/12/26 02:27:36;;;;;;;12.93;6.05;;;;;;;-1.11;88.36;100500.25;5027209;28;20408;-78
2021/12/26 02:30:22;;;;;;;10.82;5.75;;;;;;;-1.08;88.03;100498.34;5012371;28;20056;-77
2021/12/26 02:32:51;;;;;;;9.77;5.78;;;;;;;-1.05;88.36;100493.09;5008040;28;20412;-78
2021/12/26 02:35:20;;;;;;;11.55;5.50;;;;;;;-0.94;88.19;100494.19;5019408;28;20447;-78
2021/12/26 02:37:47;;;;;;;10.98;6.10;;;;;;;-0.95;87.55;100495.13;5037408;28;20029;-78
2021/12/26 02:40:14;;;;;;;10.52;5.70;;;;;;;-0.93;87.85;100498.38;5023057;28;20506;-76
2021/12/26 02:42:40;;;;;;;11.07;6.00;;;;;;;-1.01;87.71;100498.84;5026080;28;20148;-78
2021/12/26 02:45:06;;;;;;;12.10;6.25;;;;;;;-0.88;87.36;100491.31;5032026;28;20117;-77
2021/12/26 02:47:39;;;;;;;11.70;5.93;;;;;;;-0.80;86.76;100494.22;5015971;28;20507;-78
2021/12/26 02:50:08;;;;;;;12.48;6.18;;;;;;;-0.79;86.89;100499.22;5024288;28;20068;-77
2021/12/26 02:52:34;;;;;;;13.82;6.20;;;;;;;-0.76;86.55;100495.66;5030873;28;20025;-77
2021/12/26 02:55:00;;;;;;;11.82;6.22;;;;;;;-0.72;86.50;100499.66;5010337;28;20044;-78
2021/12/26 02:57:26;;;;;;;10.95;5.68;;;;;;;-0.80;86.72;100495.03;5007749;28;20025;-78
2021/12/26 02:59:52;;;;;;;11.27;5.63;;;;;;;-0.74;86.74;100500.69;5027321;28;20504;-77
2021/12/26 03:02:17;;;;;;;12.18;6.03;;;;;;;-0.76;86.86;100503.31;5015940;28;20104;-77
2021/12/26 03:04:43;;;;;;;11.88;6.13;;;;;;;-0.75;86.79;100504.13;5031748;28;20504;-76
2021/12/26 03:07:09;;;;;;;10.45;5.95;;;;;;;-0.62;86.54;100508.41;5021299;28;20029;-78
2021/12/26 03:09:44;;;;;;;12.50;6.38;;;;;;;-0.69;86.72;100499.50;5025907;28;20093;-77
2021/12/26 03:12:10;;;;;;;12.07;6.63;;;;;;;-0.72;87.08;100502.22;5023614;28;20034;-78
2021/12/26 03:14:38;;;;;;;12.10;5.80;;;;;;;-0.68;86.97;100500.31;5008652;28;20483;-76
2021/12/26 03:17:05;;;;;;;10.27;5.60;;;;;;;-0.75;86.85;100497.31;5045470;28;20510;-78
2021/12/26 03:19:34;;;;;;;13.13;6.70;;;;;;;-0.72;87.47;100497.13;5029601;28;20092;-77
2021/12/26 03:22:00;;;;;;;11.38;6.50;;;;;;;-0.69;87.34;100498.69;5026388;28;20520;-78
2021/12/26 03:24:26;;;;;;;12.05;6.85;;;;;;;-0.60;87.11;100500.69;5028630;28;20473;-78
2021/12/26 03:27:03;;;;;;;14.65;7.63;;;;;;;-0.52;86.25;100495.13;5031941;28;20064;-77
2021/12/26 03:29:29;;;;;;;14.07;7.35;;;;;;;-0.51;86.85;100504.41;5037498;28;20033;-77
2021/12/26 03:31:55;;;;;;;15.07;6.93;;;;;;;-0.49;86.24;100500.88;5016576;28;20076;-77
2021/12/26 03:34:21;;;;;;;14.50;7.05;;;;;;;-0.52;86.91;100501.03;5033754;28;20033;-76
2021/12/26 03:36:50;;;;;;;11.30;6.30;;;;;;;-0.51;87.08;100494.22;5013064;28;20504;-77
2021/12/26 03:39:16;;;;;;;14.95;7.90;;;;;;;-0.60;87.53;100495.59;5027420;28;20029;-78
2021/12/26 03:41:41;;;;;;;15.55;7.60;;;;;;;-0.42;87.08;100496.22;5029388;28;20044;-77
2021/12/26 03:44:07;;;;;;;13.70;7.18;;;;;;;-0.44;86.41;100492.94;5032251;28;20079;-75
2021/12/26 03:46:33;;;;;;;18.98;7.13;;;;;;;-0.43;86.73;100486.94;5030464;28;20083;-77
2021/12/26 03:49:04;;;;;;;13.23;6.93;;;;;;;-0.43;86.84;100486.94;5028537;28;20030;-77
2021/12/26 03:51:31;;;;;;;14.55;7.65;;;;;;;-0.38;86.43;100489.19;5021132;28;20463;-77
2021/12/26 03:53:56;;;;;;;16.98;7.90;;;;;;;-0.44;87.10;100481.00;5029411;28;20104;-78
2021/12/26 03:56:22;;;;;;;19.75;8.50;;;;;;;-0.37;87.00;100480.66;5030022;28;20032;-76
2021/12/26 03:59:06;;;;;;;12.55;7.15;;;;;;;-0.29;86.51;100481.81;5027733;28;20431;-76
2021/12/26 04:01:32;;;;;;;13.90;7.43;;;;;;;-0.32;86.06;100479.47;5029941;28;20041;-77
2021/12/26 04:03:57;;;;;;;17.60;8.13;;;;;;;-0.34;86.16;100475.34;5018545;28;20037;-78
2021/12/26 04:06:23;;;;;;;15.13;7.13;;;;;;;-0.34;86.70;100481.28;5037407;28;20029;-78
2021/12/26 04:08:49;;;;;;;15.70;7.72;;;;;;;-0.33;86.53;100471.91;5019398;28;20033;-77
2021/12/26 04:11:14;;;;;;;15.50;8.23;;;;;;;-0.44;86.86;100464.91;5019601;28;20188;-76
2021/12/26 04:13:40;;;;;;;13.60;7.63;;;;;;;-0.43;87.17;100469.09;5023767;28;20049;-77
2021/12/26 04:16:07;;;;;;;14.85;8.32;;;;;;;-0.37;87.10;100470.47;5038781;28;20044;-77
2021/12/26 04:18:33;;;;;;;14.73;8.10;;;;;;;-0.36;87.28;100467.81;5036447;28;20037;-78
2021/12/26 04:20:58;;;;;;;14.05;8.23;;;;;;;-0.40;87.45;100462.09;5030580;28;20025;-76
2021/12/26 04:23:29;;;;;;;15.45;8.05;;;;;;;-0.43;87.49;100464.00;5027260;28;20059;-76
2021/12/26 04:25:54;;;;;;;13.65;8.00;;;;;;;-0.49;87.52;100465.19;5014370;28;20033;-77
2021/12/26 04:28:20;;;;;;;14.65;8.23;;;;;;;-0.53;87.82;100457.81;5030602;28;20484;-77
2021/12/26 04:30:46;;;;;;;14.70;7.60;;;;;;;-0.56;88.08;100470.75;5033607;28;20406;-77
2021/12/26 04:33:12;;;;;;;13.63;8.07;;;;;;;-0.51;87.53;100467.03;5029875;28;20136;-77
2021/12/26 04:35:39;;;;;;;15.05;8.25;;;;;;;-0.46;87.75;100457.34;5029249;28;20033;-78
2021/12/26 04:38:05;;;;;;;13.32;7.75;;;;;;;-0.49;87.23;100459.28;5035913;28;20480;-77
2021/12/26 04:40:30;;;;;;;15.55;7.47;;;;;;;-0.60;87.23;100454.84;5019045;28;20043;-77
2021/12/26 04:43:21;;;;;;;15.40;7.80;;;;;;;-0.68;87.71;100460.41;5036300;28;20518;-77
2021/12/26 04:46:06;;;;;;;16.98;8.68;;;;;;;-0.72;87.77;100455.56;5042367;28;20099;-77
2021/12/26 04:48:55;;;;;;;18.17;8.27;;;;;;;-0.77;88.09;100450.75;5029902;28;20095;-78
2021/12/26 04:51:21;;;;;;;14.70;7.70;;;;;;;-0.76;88.54;100454.13;5018126;28;20245;-78
2021/12/26 04:53:53;;;;;;;16.17;9.18;;;;;;;-0.83;88.35;100449.41;5018546;28;20029;-78
2021/12/26 04:56:18;;;;;;;14.50;8.68;;;;;;;-0.77;88.47;100447.38;5026199;28;20507;-76
2021/12/26 04:58:44;;;;;;;18.95;8.50;;;;;;;-0.74;88.39;100448.00;5035070;28;20041;-77
2021/12/26 05:01:11;;;;;;;15.18;8.50;;;;;;;-0.67;88.02;100446.75;5029552;28;20037;-76
2021/12/26 05:03:36;;;;;;;14.60;8.48;;;;;;;-0.72;88.20;100441.09;5029727;28;20059;-76
2021/12/26 05:06:02;;;;;;;16.52;8.25;;;;;;;-0.73;88.27;100446.31;5032475;28;20507;-75
2021/12/26 05:08:28;;;;;;;15.43;7.93;;;;;;;-0.78;88.81;100446.56;5014724;28;20033;-78
2021/12/26 05:10:55;;;;;;;18.63;8.80;;;;;;;-0.75;89.27;100454.03;5030038;28;20115;-78
2021/12/26 05:13:21;;;;;;;16.73;8.45;;;;;;;-0.74;89.09;100448.00;5029919;28;20034;-77
2021/12/26 05:15:46;;;;;;;15.40;8.40;;;;;;;-0.68;88.63;100457.00;5032942;28;20040;-77
2021/12/26 05:18:12;;;;;;;18.40;8.73;;;;;;;-0.61;88.69;100461.66;5028816;28;20034;-77
2021/12/26 05:20:38;;;;;;;19.65;9.55;;;;;;;-0.59;88.33;100464.91;5033277;28;20033;-77
2021/12/26 05:23:04;;;;;;;18.90;9.00;;;;;;;-0.49;88.28;100447.38;5026389;28;20484;-77
2021/12/26 05:25:31;;;;;;;17.35;8.60;;;;;;;-0.55;88.48;100452.00;5025867;28;20037;-78
2021/12/26 05:27:57;;;;;;;15.60;8.38;;;;;;;-0.54;88.78;100459.56;5026689;28;20148;-77
2021/12/26 05:30:24;;;;;;;14.85;7.93;;;;;;;-0.56;88.73;100455.47;5033028;28;20555;-78
2021/12/26 05:33:04;;;;;;;19.42;9.65;;;;;;;-0.61;89.18;100451.47;5010718;28;20165;-77
2021/12/26 05:35:31;;;;;;;18.52;8.98;;;;;;;-0.63;89.82;100452.47;5034640;28;20527;-77
2021/12/26 05:37:58;;;;;;;18.88;9.50;;;;;;;-0.57;89.07;100449.53;5031462;28;20037;-78
2021/12/26 05:40:24;;;;;;;16.65;9.05;;;;;;;-0.52;89.80;100444.19;5006954;28;20124;-77
2021/12/26 05:42:50;;;;;;;14.65;8.40;;;;;;;-0.52;89.64;100441.66;5027162;28;20093;-77
2021/12/26 05:45:16;;;;;;;17.92;9.88;;;;;;;-0.53;89.76;100435.72;5039164;28;20546;-78
2021/12/26 05:48:08;;;;;;;15.52;9.13;;;;;;;-0.55;90.39;100442.63;5027820;28;20033;-78
2021/12/26 05:50:34;;;;;;;16.65;8.63;;;;;;;-0.50;90.18;100439.81;5044973;28;20045;-77
2021/12/26 05:53:01;;;;;;;18.90;10.23;;;;;;;-0.47;89.91;100443.00;5028719;28;20039;-77
2021/12/26 05:55:26;;;;;;;17.00;9.38;;;;;;;-0.47;89.88;100444.72;5031093;28;20018;-77
2021/12/26 05:57:53;;;;;;;19.48;10.15;;;;;;;-0.47;90.02;100439.63;5011170;28;20037;-77
2021/12/26 06:00:21;;;;;;;16.70;9.60;;;;;;;-0.50;89.66;100438.06;5029853;28;20084;-77
2021/12/26 06:02:50;;;;;;;18.42;9.65;;;;;;;-0.42;90.35;100432.50;5027605;28;20044;-77
2021/12/26 06:05:17;;;;;;;20.05;9.77;;;;;;;-0.29;90.08;100441.03;5024979;28;20049;-76
2021/12/26 06:07:43;;;;;;;21.27;10.30;;;;;;;-0.36;89.12;100436.41;5034749;28;20116;-77
2021/12/26 06:10:09;;;;;;;17.75;9.27;;;;;;;-0.35;89.57;100428.69;5029258;28;20136;-77
2021/12/26 06:12:35;;;;;;;17.60;9.57;;;;;;;-0.33;90.02;100426.84;5026741;28;20068;-76
2021/12/26 06:15:03;;;;;;;17.23;9.65;;;;;;;-0.37;90.27;100437.34;5011875;28;20029;-77
2021/12/26 06:17:30;;;;;;;20.92;11.02;;;;;;;-0.31;89.90;100437.75;5026665;28;20110;-78
2021/12/26 06:20:13;;;;;;;18.75;10.05;;;;;;;-0.29;89.67;100425.75;5025195;28;20175;-77
2021/12/26 06:22:45;;;;;;;19.98;10.90;;;;;;;-0.27;89.35;100433.31;5012169;28;20523;-76
2021/12/26 06:25:33;;;;;;;16.58;9.30;;;;;;;-0.22;88.85;100431.28;5015404;28;20057;-77
2021/12/26 06:28:15;;;;;;;18.58;9.90;;;;;;;-0.23;89.25;100437.28;5026266;28;20030;-78
2021/12/26 06:30:58;;;;;;;19.73;10.15;;;;;;;-0.16;88.87;100427.53;5029750;28;20039;-77
2021/12/26 06:33:43;;;;;;;18.58;10.15;;;;;;;-0.17;88.94;100431.00;5029666;28;20037;-77
2021/12/26 06:36:44;;;;;;;19.17;10.68;;;;;;;-0.13;88.75;100430.72;5025481;28;20465;-75
2021/12/26 06:39:29;;;;;;;22.33;9.75;;;;;;;-0.18;89.05;100437.03;5018810;28;20053;-76
2021/12/26 06:42:13;;;;;;;18.13;10.10;;;;;;;-0.25;89.38;100428.91;5030139;28;20160;-77
2021/12/26 06:44:39;;;;;;;21.38;10.77;;;;;;;-0.17;89.29;100416.53;5027554;28;20045;-77
2021/12/26 06:47:13;;;;;;;21.27;10.48;;;;;;;-0.17;88.91;100419.09;5028940;28;20386;-76
2021/12/26 06:49:47;;;;;;;20.65;10.68;;;;;;;-0.08;88.08;100425.31;5033279;28;20065;-76
2021/12/26 06:52:12;;;;;;;21.17;10.57;;;;;;;-0.13;88.10;100420.53;5010587;28;20037;-77
2021/12/26 06:54:40;;;;;;;20.17;11.32;;;;;;;-0.20;88.55;100419.28;5027609;28;20035;-76
2021/12/26 06:57:06;;;;;;;21.60;10.20;;;;;;;-0.14;88.13;100416.31;5024378;28;20083;-77
2021/12/26 06:59:32;;;;;;;21.48;10.63;;;;;;;-0.17;88.23;100431.84;5036619;28;20072;-77
2021/12/26 07:01:57;;;;;;;21.58;10.65;;;;;;;-0.20;88.40;100435.38;5043755;28;20506;-76
2021/12/26 07:04:39;;;;;;;22.45;11.13;;;;;;;-0.11;87.85;100416.16;5015021;28;20068;-77
2021/12/26 07:07:05;;;;;;;21.02;10.95;;;;;;;-0.16;88.40;100425.00;5032972;28;20030;-77
2021/12/26 07:09:32;;;;;;;22.67;10.48;;;;;;;-0.13;88.18;100429.88;5030280;28;20065;-76
2021/12/26 07:11:59;;;;;;;20.20;10.70;;;;;;;-0.18;88.66;100442.94;5027892;28;20033;-77
2021/12/26 07:14:49;;;;;;;20.88;11.15;;;;;;;-0.18;88.47;100432.72;5043639;28;20116;-77
2021/12/26 07:17:15;;;;;;;20.15;10.50;;;;;;;-0.20;89.17;100426.91;5029207;28;20656;-77
2021/12/26 07:19:44;;;;;;;22.35;11.77;;;;;;;-0.33;89.73;100438.78;5033298;28;20030;-77
2021/12/26 07:22:26;;;;;;;21.63;11.52;;;;;;;-0.40;90.13;100462.09;5029401;28;20049;-75
2021/12/26 07:24:51;;;;;;;22.23;11.95;;;;;;;-0.27;90.35;100444.31;5027325;28;20034;-76
2021/12/26 07:27:17;;;;;;;19.60;10.75;;;;;;;-0.04;89.87;100436.97;5037568;28;20029;-76
2021/12/26 07:30:12;;;;;;;22.42;10.93;;;;;;;-0.24;89.94;100443.31;5033743;28;20323;-78
2021/12/26 07:32:38;;;;;;;19.48;10.95;;;;;;;-0.34;90.72;100454.97;5017779;28;20034;-77
2021/12/26 07:35:05;;;;;;;22.55;10.82;;;;;;;-0.29;90.58;100450.41;5011977;28;20060;-77
2021/12/26 07:37:30;;;;;;;21.42;11.27;;;;;;;-0.17;90.57;100443.75;5020687;28;20373;-77
2021/12/26 07:39:56;;;;;;;21.00;11.05;;;;;;;-0.10;90.09;100445.00;5030970;28;20048;-76
2021/12/26 07:42:22;;;;;;;21.08;10.77;;;;;;;-0.11;89.10;100448.47;5012790;28;20427;-76
2021/12/26 07:45:08;;;;;;;23.30;11.10;;;;;;;-0.12;89.85;100445.09;5036828;28;20034;-78
2021/12/26 07:47:50;;;;;;;;;;;;;;;-0.06;88.87;100438.78;5016634;28;20605;-77
2021/12/26 07:50:16;;;;;;;21.50;10.80;;;;;;;-0.11;89.60;100445.94;5018240;28;19973;-76
2021/12/26 07:53:06;;;;;;;25.73;12.07;;;;;;;-0.09;89.84;100444.09;5027520;28;20106;-77
2021/12/26 07:55:50;;;;;;;25.30;11.57;;;;;;;-0.08;89.83;100428.69;5026836;28;20563;-77
2021/12/26 07:58:34;;;;;;;23.33;12.77;;;;;;;0.04;89.06;100431.38;5031966;28;20136;-77
2021/12/26 08:01:18;;;;;;;20.13;11.48;;;;;;;0.03;89.45;100434.84;5028306;28;20781;-77
2021/12/26 08:04:02;;;;;;;25.33;12.68;;;;;;;-0.02;89.65;100419.81;5033431;28;20042;-75
2021/12/26 08:06:46;;;;;;;23.15;11.75;;;;;;;0.07;89.38;100408.25;5025060;28;20045;-76
2021/12/26 08:09:12;;;;;;;22.13;12.38;;;;;;;0.05;89.24;100415.97;5021865;28;20060;-76
2021/12/26 08:11:37;;;;;;;23.42;11.90;;;;;;;0.06;89.23;100424.44;5029577;28;20100;-77
2021/12/26 08:14:03;;;;;;;23.35;12.65;;;;;;;0.11;89.15;100422.44;5036094;28;20042;-76
2021/12/26 08:16:29;;;;;;;26.95;12.68;;;;;;;0.19;88.93;100420.22;5009609;28;20047;-77
2021/12/26 08:18:55;;;;;;;26.30;12.50;;;;;;;0.14;89.17;100423.06;5009893;28;20041;-76
2021/12/26 08:21:20;;;;;;;26.63;12.75;;;;;;;0.24;89.30;100437.78;5042409;28;20029;-76
2021/12/26 08:23:46;;;;;;;23.67;11.98;;;;;;;0.21;89.14;100422.66;5029271;28;20072;-77
2021/12/26 08:26:12;;;;;;;25.60;12.80;;;;;;;0.23;89.38;100424.22;5023978;28;20048;-76
2021/12/26 08:28:38;;;;;;;26.55;12.57;;;;;;;0.28;88.40;100432.34;5028177;28;20115;-76
2021/12/26 08:31:04;;;;;;;30.38;14.48;;;;;;;0.31;88.99;100436.47;5031287;28;20041;-76
2021/12/26 08:33:30;;;;;;;28.20;14.40;;;;;;;0.31;88.83;100426.25;5026705;28;20556;-77
2021/12/26 08:35:56;;;;;;;27.02;13.80;;;;;;;0.35;88.40;100425.13;5027089;28;20411;-76
2021/12/26 08:38:21;;;;;;;25.80;12.68;;;;;;;0.38;87.97;100432.59;5026852;28;20033;-76
2021/12/26 08:40:48;;;;;;;24.02;12.82;;;;;;;0.47;87.81;100442.22;5029252;28;20439;-76
2021/12/26 08:43:14;;;;;;;22.60;11.75;;;;;;;0.48;87.73;100437.94;5027718;28;20492;-75
2021/12/26 08:45:40;;;;;;;23.95;12.30;;;;;;;0.49;87.27;100431.88;5017969;28;20412;-76
2021/12/26 08:48:05;;;;;;;23.77;11.77;;;;;;;0.49;86.83;100435.28;5028509;28;20037;-76
2021/12/26 08:50:31;;;;;;;20.88;10.88;;;;;;;0.45;87.40;100433.81;5028032;28;20240;-77
2021/12/26 08:52:57;;;;;;;26.63;13.20;;;;;;;0.58;87.18;100432.13;5019428;28;20130;-76
2021/12/26 08:55:25;;;;;;;25.38;11.73;;;;;;;0.58;86.86;100421.94;5022953;28;20021;-76
2021/12/26 08:57:52;;;;;;;21.90;11.60;;;;;;;0.57;87.00;100433.03;5025929;28;20072;-75
2021/12/26 09:00:18;;;;;;;23.73;12.43;;;;;;;0.59;87.27;100432.94;5032906;28;20484;-76
2021/12/26 09:02:44;;;;;;;25.70;11.32;;;;;;;0.54;86.95;100443.44;5032790;28;20044;-76
2021/12/26 09:05:11;;;;;;;22.67;12.38;;;;;;;0.64;86.64;100425.81;5026292;28;20038;-76
2021/12/26 09:07:37;;;;;;;24.30;12.30;;;;;;;0.58;87.24;100426.19;5042330;28;20099;-76
2021/12/26 09:10:04;;;;;;;23.65;12.10;;;;;;;0.60;87.15;100426.91;5027035;28;20037;-76
2021/12/26 09:12:30;;;;;;;23.63;12.45;;;;;;;0.66;86.98;100429.06;5025743;28;20037;-76
2021/12/26 09:14:56;;;;;;;31.08;13.90;;;;;;;0.70;87.03;100429.69;5021266;28;20876;-76
2021/12/26 09:17:21;;;;;;;34.10;15.52;;;;;;;0.66;87.01;100433.34;5023291;28;20739;-76
2021/12/26 09:19:47;;;;;;;42.25;17.67;;;;;;;0.66;87.37;100439.28;5033559;28;20175;-77
2021/12/26 09:22:15;;;;;;;24.70;12.98;;;;;;;0.66;87.85;100444.38;5027878;28;20044;-76
2021/12/26 09:24:42;;;;;;;48.80;19.42;;;;;;;0.74;87.62;100441.31;5031028;28;20033;-76
2021/12/26 09:27:08;;;;;;;28.48;13.23;;;;;;;0.69;87.54;100440.81;5019644;28;20041;-76
2021/12/26 09:29:33;;;;;;;30.73;14.05;;;;;;;0.79;86.88;100441.81;5026800;28;20037;-76
2021/12/26 09:32:02;;;;;;;25.50;12.82;;;;;;;0.76;87.37;100435.19;5027026;28;20013;-76
2021/12/26 09:34:29;;;;;;;25.27;12.57;;;;;;;0.81;87.31;100434.06;5007730;28;20488;-76
2021/12/26 09:36:55;;;;;;;28.52;12.27;;;;;;;0.83;87.44;100437.31;5023894;28;20594;-75
2021/12/26 09:39:22;;;;;;;29.80;14.00;;;;;;;0.85;87.42;100436.31;5025673;28;20067;-76
2021/12/26 09:41:49;;;;;;;27.65;13.27;;;;;;;0.86;86.78;100437.94;5026616;28;20087;-75
2021/12/26 09:44:14;;;;;;;23.10;12.50;;;;;;;0.86;87.37;100434.59;5025927;28;20026;-77
2021/12/26 09:46:40;;;;;;;27.00;12.15;;;;;;;0.92;87.34;100435.00;5026699;28;20041;-75
2021/12/26 09:49:06;;;;;;;24.80;12.48;;;;;;;1.11;86.73;100438.84;5008814;28;20049;-76
2021/12/26 09:51:32;;;;;;;22.40;12.43;;;;;;;1.08;86.71;100426.31;5031240;28;20143;-76
2021/12/26 09:53:58;;;;;;;21.85;11.93;;;;;;;1.14;86.60;100420.78;5014708;28;20538;-75
2021/12/26 09:56:23;;;;;;;28.00;12.27;;;;;;;1.16;86.21;100429.16;5027052;28;20025;-76
2021/12/26 09:58:57;;;;;;;31.02;14.23;;;;;;;1.20;86.05;100422.09;5024493;28;20427;-75
2021/12/26 10:01:45;;;;;;;22.83;12.50;;;;;;;1.30;86.44;100417.97;5036544;28;20120;-76
2021/12/26 10:04:24;;;;;;;28.30;13.00;;;;;;;1.32;86.17;100421.28;5021317;28;20112;-76
2021/12/26 10:06:53;;;;;;;27.15;12.88;;;;;;;1.31;85.92;100419.63;5031398;28;20041;-76
2021/12/26 10:09:20;;;;;;;24.02;12.52;;;;;;;1.32;85.74;100432.31;5026758;28;20049;-76
2021/12/26 10:11:48;;;;;;;25.30;12.00;;;;;;;1.30;85.67;100413.72;5026394;28;20038;-76
2021/12/26 10:14:17;;;;;;;19.45;10.80;;;;;;;1.32;85.89;100414.41;5025215;28;20064;-76
2021/12/26 10:16:54;;;;;;;26.02;12.68;;;;;;;1.28;86.14;100418.09;5026821;28;20069;-76
2021/12/26 10:19:20;;;;;;;23.60;11.40;;;;;;;1.27;86.42;100411.34;5025382;28;20178;-76
2021/12/26 10:22:05;;;;;;;23.90;12.48;;;;;;;1.36;86.01;100412.47;5010069;28;20029;-76
2021/12/26 10:24:32;;;;;;;26.85;12.57;;;;;;;1.43;85.86;100411.13;5022863;28;20059;-76
2021/12/26 10:27:08;;;;;;;26.85;12.57;;;;;;;1.40;85.89;100410.53;5026634;28;20119;-76
2021/12/26 10:29:48;;;;;;;24.25;11.73;;;;;;;1.31;86.22;100397.44;5022150;28;20045;-76
2021/12/26 10:32:22;;;;;;;23.33;12.48;;;;;;;1.29;85.97;100395.94;5019884;28;20033;-76
2021/12/26 10:34:57;;;;;;;23.90;13.20;;;;;;;1.42;85.68;100398.47;5024979;28;20479;-76
2021/12/26 10:37:33;;;;;;;24.02;12.30;;;;;;;1.36;86.39;100381.81;5029169;28;20067;-76
2021/12/26 10:40:03;;;;;;;22.88;11.93;;;;;;;1.45;86.06;100386.28;5030715;28;20030;-76
2021/12/26 10:42:32;;;;;;;28.95;13.52;;;;;;;1.42;86.22;100388.22;5030463;28;20075;-75
2021/12/26 10:45:04;;;;;;;26.08;12.32;;;;;;;1.47;86.40;100376.78;5033580;28;20041;-76
2021/12/26 10:47:32;;;;;;;25.87;12.27;;;;;;;1.49;86.47;100384.34;5035622;28;20128;-76
2021/12/26 10:50:06;;;;;;;23.70;12.88;;;;;;;1.53;86.44;100380.63;5037293;28;20500;-76
2021/12/26 10:52:38;;;;;;;26.85;13.02;;;;;;;1.63;85.91;100381.59;5023724;28;20479;-75
2021/12/26 10:55:14;;;;;;;23.63;12.52;;;;;;;1.70;85.71;100375.13;5027197;28;20026;-76
2021/12/26 10:57:50;;;;;;;22.58;12.05;;;;;;;1.70;86.00;100375.13;5022645;28;20056;-76
2021/12/26 11:00:21;;;;;;;22.67;12.52;;;;;;;1.72;86.12;100373.28;5030749;28;20033;-75
2021/12/26 11:02:57;;;;;;;27.90;12.77;;;;;;;1.70;86.55;100362.34;5011979;28;20403;-76
2021/12/26 11:05:41;;;;;;;23.40;12.20;;;;;;;1.75;86.92;100356.91;5026261;28;20049;-76
2021/12/26 11:08:11;;;;;;;26.52;13.63;;;;;;;1.79;86.82;100358.34;5026756;28;20036;-76
2021/12/26 11:10:45;;;;;;;28.20;13.70;;;;;;;1.81;87.35;100358.22;5024834;28;20120;-76
2021/12/26 11:13:20;;;;;;;23.67;12.80;;;;;;;1.87;86.86;100361.16;5028710;28;20208;-76
2021/12/26 11:15:47;;;;;;;24.40;12.13;;;;;;;1.92;87.37;100359.09;5027427;28;20040;-76
2021/12/26 11:18:16;;;;;;;25.48;13.23;;;;;;;1.93;87.40;100362.44;5027624;28;20425;-76
2021/12/26 11:20:51;;;;;;;26.90;13.13;;;;;;;2.02;87.62;100355.88;5038212;28;20391;-76
2021/12/26 11:23:23;;;;;;;25.58;13.30;;;;;;;1.96;88.13;100352.00;5035126;28;20128;-76
2021/12/26 11:25:57;;;;;;;29.02;14.60;;;;;;;1.93;88.78;100358.16;5037122;28;20045;-76
2021/12/26 11:28:29;;;;;;;24.35;12.15;;;;;;;1.94;88.63;100348.72;5026741;28;20184;-74
2021/12/26 11:30:56;;;;;;;21.47;12.03;;;;;;;1.96;88.45;100352.00;5048318;28;20068;-76